createdAt,value
2022-11-21T00:02:00.715Z,10.70
2022-11-21T00:04:30.319Z,10.52
2022-11-21T00:06:59.847Z,8.27
2022-11-21T00:09:29.817Z,8.40
2022-11-21T00:12:01.914Z,8.35
2022-11-21T00:14:31.300Z,12.52
2022-11-21T00:17:00.748Z,12.25
2022-11-21T00:19:30.231Z,13.25
2022-11-21T00:21:59.640Z,14.05
2022-11-21T00:24:29.309Z,11.15
2022-11-21T00:27:01.595Z,14.90
2022-11-21T00:29:31.054Z,11.00
2022-11-21T00:32:00.572Z,9.48
2022-11-21T00:34:30.302Z,9.50
2022-11-21T00:36:59.781Z,9.68
2022-11-21T00:39:29.416Z,9.00
2022-11-21T00:42:01.554Z,9.27
2022-11-21T00:44:31.751Z,12.10
2022-11-21T00:47:01.270Z,10.60
2022-11-21T00:49:30.756Z,13.90
2022-11-21T00:52:00.256Z,12.05
2022-11-21T00:54:29.950Z,11.57
2022-11-21T00:57:02.149Z,10.80
2022-11-21T00:59:31.724Z,10.48
2022-11-21T01:02:01.427Z,14.32
2022-11-21T01:04:33.567Z,13.75
2022-11-21T01:07:03.490Z,11.65
2022-11-21T01:09:33.399Z,10.45
2022-11-21T01:12:05.494Z,11.02
2022-11-21T01:14:34.978Z,11.10
2022-11-21T01:17:04.489Z,12.25
2022-11-21T01:19:33.990Z,12.32
2022-11-21T01:22:03.539Z,14.20
2022-11-21T01:24:33.131Z,12.85
2022-11-21T01:27:05.160Z,11.30
2022-11-21T01:29:34.630Z,15.05
2022-11-21T01:32:04.117Z,13.77
2022-11-21T01:34:33.602Z,13.77
2022-11-21T01:37:03.097Z,12.65
2022-11-21T01:39:32.563Z,12.80
2022-11-21T01:42:02.073Z,12.43
2022-11-21T01:44:53.551Z,13.40
2022-11-21T01:47:23.682Z,12.85
2022-11-21T01:49:54.556Z,13.27
2022-11-21T01:52:25.863Z,11.95
2022-11-21T01:54:57.931Z,11.30
2022-11-21T01:57:30.478Z,10.48
2022-11-21T02:00:04.686Z,10.00
2022-11-21T02:02:36.646Z,11.05
2022-11-21T02:05:09.068Z,11.00
2022-11-21T02:07:42.656Z,10.63
2022-11-21T02:10:13.334Z,11.90
2022-11-21T02:12:46.488Z,9.75
2022-11-21T02:15:18.902Z,10.70
2022-11-21T02:17:48.336Z,9.80
2022-11-21T02:20:18.984Z,9.02
2022-11-21T02:22:54.552Z,10.15
2022-11-21T02:25:28.843Z,9.02
2022-11-21T02:28:01.258Z,8.93
2022-11-21T02:30:31.720Z,8.70
2022-11-21T02:33:01.741Z,9.57
2022-11-21T02:35:31.292Z,8.82
2022-11-21T02:38:02.559Z,8.27
2022-11-21T02:40:36.518Z,9.10
2022-11-21T02:43:11.015Z,8.63
2022-11-21T02:45:42.549Z,11.20
2022-11-21T02:48:12.602Z,9.10
2022-11-21T02:50:43.481Z,9.25
2022-11-21T02:53:14.211Z,10.55
2022-11-21T02:55:46.393Z,9.38
2022-11-21T02:58:15.887Z,8.95
2022-11-21T03:00:45.525Z,9.98
2022-11-21T03:03:15.126Z,9.65
2022-11-21T03:05:44.915Z,9.00
2022-11-21T03:08:15.373Z,9.85
2022-11-21T03:10:47.358Z,10.77
2022-11-21T03:13:16.990Z,9.35
2022-11-21T03:15:46.453Z,10.45
2022-11-21T03:18:16.282Z,10.48
2022-11-21T03:20:45.794Z,9.65
2022-11-21T03:23:15.735Z,9.32
2022-11-21T03:25:47.755Z,9.02
2022-11-21T03:28:17.197Z,8.95
2022-11-21T03:30:46.669Z,9.00
2022-11-21T03:33:16.756Z,9.48
2022-11-21T03:35:46.266Z,9.68
2022-11-21T03:38:15.677Z,9.63
2022-11-21T03:40:47.664Z,14.35
2022-11-21T03:43:17.207Z,9.25
2022-11-21T03:45:49.006Z,9.65
2022-11-21T03:48:18.574Z,9.93
2022-11-21T03:50:48.067Z,10.23
2022-11-21T03:53:17.619Z,10.55
2022-11-21T03:55:49.611Z,11.93
2022-11-21T03:58:19.311Z,10.00
2022-11-21T04:00:50.378Z,11.02
2022-11-21T04:03:21.407Z,10.88
2022-11-21T04:05:50.926Z,11.70
2022-11-21T04:08:20.396Z,9.40
2022-11-21T04:10:53.597Z,10.93
2022-11-21T04:13:23.095Z,11.35
2022-11-21T04:15:52.691Z,11.15
2022-11-21T04:18:22.068Z,11.35
2022-11-21T04:20:51.551Z,11.73
2022-11-21T04:23:20.957Z,12.50
2022-11-21T04:25:53.087Z,10.75
2022-11-21T04:28:22.879Z,10.52
2022-11-21T04:30:54.889Z,11.68
2022-11-21T04:33:24.892Z,10.38
2022-11-21T04:35:54.450Z,11.00
2022-11-21T04:38:23.893Z,10.93
2022-11-21T04:40:55.853Z,12.45
2022-11-21T04:43:25.275Z,11.77
2022-11-21T04:45:54.688Z,11.52
2022-11-21T04:48:24.798Z,11.63
2022-11-21T04:50:54.197Z,10.50
2022-11-21T04:53:23.597Z,9.75
2022-11-21T04:55:55.647Z,10.98
2022-11-21T04:58:25.067Z,12.00
2022-11-21T05:00:54.530Z,11.05
2022-11-21T05:03:23.943Z,11.85
2022-11-21T05:05:53.545Z,11.60
2022-11-21T05:08:22.908Z,12.00
2022-11-21T05:11:07.360Z,10.60
2022-11-21T05:13:36.809Z,11.95
2022-11-21T05:16:06.627Z,10.95
2022-11-21T05:18:36.095Z,11.80
2022-11-21T05:21:06.012Z,12.35
2022-11-21T05:23:35.423Z,11.45
2022-11-21T05:26:07.384Z,11.93
2022-11-21T05:28:36.890Z,12.93
2022-11-21T05:31:06.342Z,11.18
2022-11-21T05:33:35.794Z,12.30
2022-11-21T05:36:05.198Z,11.05
2022-11-21T05:38:34.575Z,10.57
2022-11-21T05:41:03.935Z,11.32
2022-11-21T05:43:48.403Z,11.80
2022-11-21T05:46:19.082Z,14.70
2022-11-21T05:48:49.640Z,13.00
2022-11-21T05:51:19.596Z,11.63
2022-11-21T05:53:49.916Z,12.40
2022-11-21T05:56:20.667Z,12.52
2022-11-21T05:58:52.689Z,13.27
2022-11-21T06:01:42.873Z,11.50
2022-11-21T06:04:10.294Z,12.27
2022-11-21T06:06:40.100Z,11.48
2022-11-21T06:09:09.544Z,12.80
2022-11-21T06:11:38.955Z,11.95
2022-11-21T06:14:10.939Z,16.95
2022-11-21T06:16:40.382Z,11.70
2022-11-21T06:19:09.972Z,13.10
2022-11-21T06:21:39.370Z,12.82
2022-11-21T06:24:10.217Z,13.48
2022-11-21T06:26:39.585Z,13.02
2022-11-21T06:29:13.614Z,13.27
2022-11-21T06:31:42.987Z,13.05
2022-11-21T06:34:12.433Z,16.02
2022-11-21T06:36:42.309Z,14.95
2022-11-21T06:39:11.706Z,14.38
2022-11-21T06:41:41.082Z,16.00
2022-11-21T06:44:13.079Z,13.70
2022-11-21T06:46:45.828Z,14.90
2022-11-21T06:49:17.792Z,14.18
2022-11-21T06:51:47.631Z,16.58
2022-11-21T06:54:17.609Z,15.70
2022-11-21T06:56:46.982Z,16.05
2022-11-21T06:59:19.293Z,16.90
2022-11-21T07:01:48.822Z,15.65
2022-11-21T07:04:18.211Z,17.55
2022-11-21T07:06:47.636Z,16.63
2022-11-21T07:09:32.648Z,19.75
2022-11-21T07:12:23.151Z,15.40
2022-11-21T07:14:52.496Z,17.55
2022-11-21T07:17:21.897Z,16.58
2022-11-21T07:19:51.288Z,17.10
2022-11-21T07:22:21.131Z,16.92
2022-11-21T07:24:50.500Z,18.75
2022-11-21T07:27:19.871Z,18.50
2022-11-21T07:29:49.278Z,16.67
2022-11-21T07:32:21.266Z,16.90
2022-11-21T07:34:50.625Z,17.20
2022-11-21T07:37:20.082Z,17.90
2022-11-21T07:39:49.492Z,16.52
2022-11-21T07:42:18.945Z,16.80
2022-11-21T07:44:48.446Z,17.45
2022-11-21T07:47:17.882Z,17.65
2022-11-21T07:49:49.863Z,17.27
2022-11-21T07:52:19.294Z,16.58
2022-11-21T07:54:48.698Z,17.88
2022-11-21T07:57:18.098Z,16.05
2022-11-21T07:59:47.477Z,15.68
2022-11-21T08:02:21.254Z,15.15
2022-11-21T08:04:53.494Z,17.08
2022-11-21T08:07:24.225Z,15.75
2022-11-21T08:09:53.751Z,16.25
2022-11-21T08:12:23.403Z,17.10
2022-11-21T08:14:55.556Z,17.35
2022-11-21T08:17:24.984Z,17.42
2022-11-21T08:19:58.212Z,17.00
2022-11-21T08:22:27.639Z,16.42
2022-11-21T08:24:57.024Z,16.80
2022-11-21T08:27:26.524Z,15.45
2022-11-21T08:29:55.926Z,15.48
2022-11-21T08:32:25.288Z,15.75
2022-11-21T08:34:57.275Z,17.70
2022-11-21T08:37:26.666Z,15.57
2022-11-21T08:39:56.077Z,15.48
2022-11-21T08:42:25.482Z,15.20
2022-11-21T08:44:54.968Z,10.57
2022-11-21T08:47:24.382Z,14.05
2022-11-21T08:49:53.795Z,14.48
2022-11-21T08:52:25.824Z,16.42
2022-11-21T08:54:55.246Z,15.13
2022-11-21T08:57:24.661Z,14.65
2022-11-21T08:59:54.058Z,16.83
2022-11-21T09:02:23.477Z,11.60
2022-11-21T09:04:53.511Z,14.65
2022-11-21T09:07:25.549Z,14.13
2022-11-21T09:09:54.971Z,15.02
2022-11-21T09:12:24.429Z,13.77
2022-11-21T09:15:06.397Z,11.82
2022-11-21T09:17:48.261Z,14.10
2022-11-21T09:20:18.047Z,18.73
2022-11-21T09:22:50.185Z,13.07
2022-11-21T09:25:19.873Z,14.95
2022-11-21T09:27:49.346Z,10.75
2022-11-21T09:30:18.934Z,14.55
2022-11-21T09:32:48.341Z,13.43
2022-11-21T09:35:17.842Z,16.50
2022-11-21T09:37:51.514Z,15.73
2022-11-21T09:40:21.545Z,15.13
2022-11-21T09:43:06.483Z,14.52
2022-11-21T09:45:37.371Z,18.70
2022-11-21T09:48:12.054Z,14.88
2022-11-21T09:51:14.145Z,15.23
2022-11-21T09:53:40.479Z,15.63
2022-11-21T09:56:14.237Z,14.57
2022-11-21T09:58:47.114Z,17.85
2022-11-21T10:01:19.075Z,14.90
2022-11-21T10:03:49.918Z,13.55
2022-11-21T10:06:22.796Z,13.20
2022-11-21T10:08:59.904Z,14.48
2022-11-21T10:12:00.385Z,13.93
2022-11-21T10:14:39.761Z,11.50
2022-11-21T10:17:20.901Z,10.60
2022-11-21T10:20:10.229Z,11.88
2022-11-21T10:22:53.861Z,11.82
2022-11-21T10:25:27.852Z,12.23
2022-11-21T10:28:00.129Z,7.40
2022-11-21T10:30:29.865Z,10.10
2022-11-21T10:33:01.410Z,12.35
2022-11-21T10:35:36.649Z,10.05
2022-11-21T10:38:20.467Z,11.52
2022-11-21T10:40:54.412Z,11.25
2022-11-21T10:43:44.047Z,10.82
2022-11-21T10:46:14.511Z,8.82
2022-11-21T10:48:43.930Z,10.18
2022-11-21T10:51:28.935Z,10.07
2022-11-21T10:54:21.732Z,8.90
2022-11-21T10:56:55.015Z,11.73
2022-11-21T10:59:30.733Z,9.20
2022-11-21T11:02:02.229Z,10.10
2022-11-21T11:04:40.698Z,9.50
2022-11-21T11:07:27.232Z,9.80
2022-11-21T11:10:17.343Z,9.65
2022-11-21T11:13:08.701Z,10.63
2022-11-21T11:16:01.759Z,9.40
2022-11-21T11:18:31.512Z,9.40
2022-11-21T11:21:15.102Z,6.03
2022-11-21T11:23:44.963Z,8.40
2022-11-21T11:26:24.481Z,8.80
2022-11-21T11:28:58.237Z,9.93
2022-11-21T11:31:27.705Z,13.82
2022-11-21T11:33:58.531Z,9.23
2022-11-21T11:36:40.022Z,8.98
2022-11-21T11:39:17.084Z,8.60
2022-11-21T11:42:16.773Z,8.73
2022-11-21T11:45:07.124Z,9.73
2022-11-21T11:47:41.883Z,7.95
2022-11-21T11:50:15.656Z,8.20
2022-11-21T11:52:57.100Z,8.57
2022-11-21T11:55:29.618Z,6.60
2022-11-21T11:58:02.565Z,6.55
2022-11-21T12:00:41.624Z,7.85
2022-11-21T12:03:16.120Z,8.45
2022-11-21T12:05:56.755Z,6.03
2022-11-21T12:08:45.999Z,5.90
2022-11-21T12:11:42.505Z,7.00
2022-11-21T12:14:48.443Z,6.70
2022-11-21T12:17:23.197Z,7.30
2022-11-21T12:19:53.551Z,8.87
2022-11-21T12:22:23.600Z,4.70
2022-11-21T12:24:53.035Z,7.73
2022-11-21T12:27:29.594Z,5.70
2022-11-21T12:30:12.011Z,5.17
2022-11-21T12:32:55.693Z,6.53
2022-11-21T12:35:39.284Z,5.17
2022-11-21T12:38:17.690Z,7.10
2022-11-21T12:40:51.512Z,5.97
2022-11-21T12:43:25.563Z,7.23
2022-11-21T12:45:59.071Z,5.20
2022-11-21T12:48:53.664Z,5.97
2022-11-21T12:52:01.287Z,5.63
2022-11-21T12:55:04.932Z,5.20
2022-11-21T12:57:44.808Z,6.50
2022-11-21T13:00:20.315Z,4.20
2022-11-21T13:03:08.467Z,5.00
2022-11-21T13:05:43.689Z,4.70
2022-11-21T13:08:17.653Z,5.83
2022-11-21T13:11:13.799Z,4.73
2022-11-21T13:13:45.312Z,6.00
2022-11-21T13:16:36.628Z,5.53
2022-11-21T13:19:15.745Z,5.67
2022-11-21T13:21:50.508Z,4.97
2022-11-21T13:24:50.310Z,5.90
2022-11-21T13:27:33.549Z,6.40
2022-11-21T13:30:24.599Z,5.40
2022-11-21T13:32:54.997Z,5.77
2022-11-21T13:36:09.362Z,5.03
2022-11-21T13:39:08.857Z,4.80
2022-11-21T13:42:20.570Z,7.77
2022-11-21T13:44:50.903Z,4.30
2022-11-21T13:47:46.176Z,4.57
2022-11-21T13:50:24.957Z,4.83
2022-11-21T13:53:01.966Z,4.67
2022-11-21T13:55:51.621Z,4.83
2022-11-21T13:58:33.324Z,4.70
2022-11-21T14:01:24.516Z,5.20
2022-11-21T14:04:08.907Z,5.23
2022-11-21T14:06:39.924Z,5.47
2022-11-21T14:09:20.339Z,5.13
2022-11-21T14:11:51.643Z,4.83
2022-11-21T14:14:42.417Z,5.00
2022-11-21T14:17:32.800Z,5.53
2022-11-21T14:20:04.004Z,5.80
2022-11-21T14:22:43.854Z,5.50
2022-11-21T14:25:19.472Z,6.63
2022-11-21T14:27:50.790Z,6.47
2022-11-21T14:30:37.855Z,6.40
2022-11-21T14:33:29.182Z,6.60
2022-11-21T14:36:02.230Z,7.10
2022-11-21T14:38:33.252Z,8.00
2022-11-21T14:41:35.279Z,7.30
2022-11-21T14:44:20.467Z,8.23
2022-11-21T14:46:53.572Z,8.60
2022-11-21T14:49:26.391Z,8.17
2022-11-21T14:52:04.265Z,7.83
2022-11-21T14:54:35.947Z,7.33
2022-11-21T14:57:10.389Z,8.23
2022-11-21T14:59:43.122Z,8.60
2022-11-21T15:02:18.705Z,7.47
2022-11-21T15:04:50.403Z,7.73
2022-11-21T15:07:31.357Z,8.03
2022-11-21T15:12:55.852Z,7.93
2022-11-21T15:15:31.329Z,9.40
2022-11-21T15:18:27.997Z,9.33
2022-11-21T15:20:56.725Z,7.93
2022-11-21T15:23:30.647Z,8.85
2022-11-21T15:26:01.639Z,8.40
2022-11-21T15:28:32.285Z,8.50
2022-11-21T15:31:17.402Z,8.52
2022-11-21T15:37:05.259Z,8.73
2022-11-21T15:39:36.105Z,8.18
2022-11-21T15:42:35.763Z,8.10
2022-11-21T15:45:07.055Z,8.45
2022-11-21T15:47:36.815Z,9.07
2022-11-21T15:50:09.806Z,9.70
2022-11-21T15:52:48.270Z,9.10
2022-11-21T15:55:22.562Z,9.60
2022-11-21T15:57:52.039Z,8.40
2022-11-21T16:00:21.732Z,9.63
2022-11-21T16:02:51.769Z,8.93
2022-11-21T16:05:23.809Z,8.80
2022-11-21T16:07:53.337Z,9.15
2022-11-21T16:10:27.572Z,9.88
2022-11-21T16:12:57.889Z,9.43
2022-11-21T16:15:27.535Z,9.13
2022-11-21T16:17:57.007Z,9.77
2022-11-21T16:20:29.078Z,9.27
2022-11-21T16:22:58.564Z,10.00
2022-11-21T16:25:28.026Z,12.00
2022-11-21T16:27:59.784Z,11.43
2022-11-21T16:30:30.257Z,12.90
2022-11-21T16:32:59.830Z,11.45
2022-11-21T16:35:32.367Z,10.45
2022-11-21T16:38:01.856Z,12.30
2022-11-21T16:40:31.296Z,9.90
2022-11-21T16:43:10.124Z,12.77
2022-11-21T16:45:40.087Z,10.85
2022-11-21T16:48:09.730Z,9.40
2022-11-21T16:50:41.733Z,9.70
2022-11-21T16:53:11.440Z,9.25
2022-11-21T16:55:40.929Z,10.20
2022-11-21T16:58:10.364Z,9.90
2022-11-21T17:00:39.921Z,8.68
2022-11-21T17:03:09.432Z,9.90
2022-11-21T17:05:41.467Z,9.10
2022-11-21T17:08:10.999Z,9.57
2022-11-21T17:10:40.453Z,9.20
2022-11-21T17:13:10.039Z,9.52
2022-11-21T17:15:39.609Z,9.23
2022-11-21T17:18:09.071Z,9.32
2022-11-21T17:20:41.168Z,10.15
2022-11-21T17:23:10.599Z,23.40
2022-11-21T17:25:40.080Z,33.77
2022-11-21T17:28:09.563Z,19.75
2022-11-21T17:30:44.169Z,17.42
2022-11-21T17:33:13.687Z,16.00
2022-11-21T17:35:46.712Z,9.87
2022-11-21T17:38:17.185Z,11.93
2022-11-21T17:40:46.696Z,20.90
2022-11-21T17:43:16.119Z,18.50
2022-11-21T17:45:46.972Z,10.77
2022-11-21T17:48:16.384Z,13.90
2022-11-21T17:50:48.449Z,12.47
2022-11-21T17:53:17.935Z,9.47
2022-11-21T17:55:47.993Z,14.80
2022-11-21T17:58:17.462Z,15.53
2022-11-21T18:00:46.961Z,9.90
2022-11-21T18:03:16.426Z,16.00
2022-11-21T18:05:51.626Z,13.93
2022-11-21T18:08:21.440Z,10.45
2022-11-21T18:10:54.693Z,11.65
2022-11-21T18:13:24.269Z,11.57
2022-11-21T18:15:53.752Z,10.43
2022-11-21T18:18:23.667Z,11.02
2022-11-21T18:20:55.748Z,10.15
2022-11-21T18:23:26.263Z,11.75
2022-11-21T18:25:55.739Z,13.20
2022-11-21T18:28:25.225Z,12.40
2022-11-21T18:30:56.008Z,12.13
2022-11-21T18:33:25.578Z,13.63
2022-11-21T18:35:57.674Z,15.13
2022-11-21T18:38:47.283Z,13.15
2022-11-21T18:41:18.572Z,15.10
2022-11-21T18:43:52.429Z,14.52
2022-11-21T18:46:23.160Z,13.90
2022-11-21T18:49:08.739Z,15.32
2022-11-21T18:51:40.890Z,15.18
2022-11-21T18:54:11.134Z,15.10
2022-11-21T18:56:42.752Z,14.93
2022-11-21T18:59:12.276Z,16.50
2022-11-21T19:01:42.160Z,15.38
2022-11-21T19:04:11.667Z,15.60
2022-11-21T19:06:43.767Z,15.40
2022-11-21T19:09:14.824Z,15.88
2022-11-21T19:11:44.448Z,17.00
2022-11-21T19:14:14.117Z,16.00
2022-11-21T19:16:43.621Z,17.40
2022-11-21T19:22:07.456Z,18.17
2022-11-21T19:24:36.896Z,16.50
2022-11-21T19:27:07.784Z,20.27
2022-11-21T19:29:37.343Z,19.92
2022-11-21T19:32:07.461Z,18.65
2022-11-21T19:34:37.007Z,20.23
2022-11-21T19:37:09.309Z,19.15
2022-11-21T19:39:38.719Z,19.40
2022-11-21T19:42:08.229Z,18.00
2022-11-21T19:44:37.624Z,18.98
2022-11-21T19:47:07.110Z,18.60
2022-11-21T19:49:36.566Z,18.77
2022-11-21T19:52:08.804Z,18.75
2022-11-21T19:54:38.440Z,17.60
2022-11-21T19:57:13.518Z,18.90
2022-11-21T19:59:46.615Z,18.98
2022-11-21T20:02:19.346Z,18.73
2022-11-21T20:04:48.992Z,17.23
2022-11-21T20:07:21.222Z,16.55
2022-11-21T20:09:50.712Z,17.50
2022-11-21T20:12:20.153Z,17.33
2022-11-21T20:14:49.616Z,16.42
2022-11-21T20:17:19.252Z,17.63
2022-11-21T20:19:50.755Z,17.48
2022-11-21T20:22:23.266Z,17.33
2022-11-21T20:24:52.678Z,16.40
2022-11-21T20:27:22.248Z,17.00
2022-11-21T20:29:51.696Z,15.95
2022-11-21T20:32:21.218Z,17.25
2022-11-21T20:34:50.740Z,17.58
2022-11-21T20:37:23.007Z,16.45
2022-11-21T20:39:52.542Z,15.23
2022-11-21T20:42:22.015Z,16.52
2022-11-21T20:47:40.939Z,14.85
2022-11-21T20:50:25.742Z,15.50
2022-11-21T20:55:54.707Z,14.93
2022-11-21T20:58:24.179Z,13.50
2022-11-21T21:00:53.697Z,15.75
2022-11-21T21:03:23.173Z,15.30
2022-11-21T21:05:57.205Z,16.50
2022-11-21T21:08:30.384Z,16.80
2022-11-21T21:11:06.345Z,15.43
2022-11-21T21:13:36.587Z,14.80
2022-11-21T21:16:07.501Z,14.50
2022-11-21T21:18:37.776Z,14.82
2022-11-21T21:21:16.839Z,14.27
2022-11-21T21:23:51.021Z,15.23
2022-11-21T21:26:22.786Z,17.08
2022-11-21T21:28:52.433Z,15.30
2022-11-21T21:31:24.166Z,14.30
2022-11-21T21:33:53.928Z,14.73
2022-11-21T21:36:25.394Z,14.27
2022-11-21T21:38:59.149Z,15.55
2022-11-21T21:41:30.683Z,16.02
2022-11-21T21:44:00.549Z,14.95
2022-11-21T21:46:30.572Z,15.73
2022-11-21T21:49:00.754Z,16.73
2022-11-21T21:51:31.514Z,15.63
2022-11-21T21:54:03.590Z,17.02
2022-11-21T21:56:33.631Z,16.05
2022-11-21T21:59:03.148Z,16.23
2022-11-21T22:01:34.209Z,15.48
2022-11-21T22:04:05.256Z,17.05
2022-11-21T22:06:35.955Z,15.88
2022-11-21T22:09:07.992Z,14.57
2022-11-21T22:11:39.420Z,15.63
2022-11-21T22:14:13.331Z,17.35
2022-11-21T22:16:43.159Z,16.00
2022-11-21T22:19:12.718Z,16.45
2022-11-21T22:21:42.427Z,17.15
2022-11-21T22:24:27.167Z,16.55
2022-11-21T22:26:57.495Z,16.17
2022-11-21T22:29:26.974Z,15.63
2022-11-21T22:31:56.547Z,15.32
2022-11-21T22:34:26.675Z,16.05
2022-11-21T22:36:56.224Z,14.48
2022-11-21T22:39:28.371Z,14.95
2022-11-21T22:41:59.991Z,14.77
2022-11-21T22:44:29.854Z,16.02
2022-11-21T22:46:59.732Z,13.80
2022-11-21T22:49:29.275Z,15.48
2022-11-21T22:51:58.837Z,14.27
2022-11-21T22:54:31.241Z,14.10
2022-11-21T22:57:00.882Z,14.07
2022-11-21T22:59:30.400Z,13.05
2022-11-21T23:02:00.008Z,15.40
2022-11-21T23:04:29.632Z,13.35
2022-11-21T23:07:00.134Z,13.82
2022-11-21T23:09:32.420Z,13.82
2022-11-21T23:12:02.038Z,13.10
2022-11-21T23:14:31.560Z,12.15
2022-11-21T23:17:01.396Z,14.15
2022-11-21T23:19:31.181Z,13.45
2022-11-21T23:22:01.139Z,14.15
2022-11-21T23:24:33.214Z,13.70
2022-11-21T23:27:02.757Z,14.18
2022-11-21T23:29:32.412Z,13.57
2022-11-21T23:32:01.935Z,15.70
2022-11-21T23:34:31.404Z,13.50
2022-11-21T23:37:00.921Z,13.57
2022-11-21T23:39:33.032Z,14.82
2022-11-21T23:42:02.561Z,13.95
2022-11-21T23:44:32.245Z,13.20
2022-11-21T23:47:01.732Z,15.07
2022-11-21T23:49:31.425Z,13.25
2022-11-21T23:52:01.116Z,14.60
2022-11-21T23:54:33.237Z,15.13
2022-11-21T23:57:03.035Z,12.63
2022-11-21T23:59:32.769Z,15.40
